Time;durP1;ratioP1;P1;durP2;ratioP2;P2;SDS_P1;SDS_P2;PMS_P1;PMS_P2;Temp;Humidity;BMP_temperature;BMP_pressure;BME280_temperature;BME280_humidity;BME280_pressure;Samples;Min_cycle;Max_cycle;Signal;HPM_P1;HPM_P2
2022/08/11 00:04:20;;;;;;;7.10;3.40;;;;;;;17.69;59.23;101283.79;106083;1271;25474;-71
2022/08/11 00:20:13;;;;;;;3.60;3.20;;;;;;;17.60;59.67;101281.17;108127;1277;22681;-70
2022/08/11 00:27:02;;;;;;;5.40;3.40;;;;;;;17.58;59.58;101281.23;106478;1274;23652;-69
2022/08/11 00:33:56;;;;;;;7.70;3.70;;;;;;;17.55;59.87;101280.59;106010;1277;22541;-71
2022/08/11 00:45:33;;;;;;;4.10;3.10;;;;;;;17.37;60.16;101274.25;106032;1276;22740;-75
2022/08/11 00:52:20;;;;;;;5.40;3.20;;;;;;;17.30;60.37;101280.09;105725;1277;22692;-73
2022/08/11 00:59:27;;;;;;;3.90;3.50;;;;;;;17.22;60.66;101277.96;105621;1277;22733;-71
2022/08/11 01:02:13;;;;;;;3.90;2.90;;;;;;;17.20;60.93;101276.05;106144;1271;25430;-85
2022/08/11 01:05:11;;;;;;;9.40;3.60;;;;;;;17.18;60.76;101277.70;106039;1274;22776;-71
2022/08/11 01:07:53;;;;;;;3.60;3.20;;;;;;;17.12;60.95;101279.96;106346;1271;22598;-70
2022/08/11 01:10:28;;;;;;;3.40;2.90;;;;;;;17.10;61.15;101283.56;105979;1271;25252;-70
2022/08/11 01:13:17;;;;;;;5.20;2.90;;;;;;;17.05;60.92;101283.98;106204;1271;25624;-69
2022/08/11 01:16:09;;;;;;;3.70;2.80;;;;;;;17.04;61.05;101282.75;106228;1271;25252;-72
2022/08/11 01:18:38;;;;;;;4.10;2.80;;;;;;;17.05;61.28;101280.44;106078;1271;22524;-73
2022/08/11 01:29:38;;;;;;;6.30;3.00;;;;;;;16.93;61.58;101280.34;105922;1276;23224;-72
2022/08/11 01:32:54;;;;;;;6.50;3.00;;;;;;;16.93;61.74;101275.89;105470;1281;22882;-72
2022/08/11 01:35:40;;;;;;;3.60;3.10;;;;;;;16.93;61.67;101279.46;105315;1281;22612;-76
2022/08/11 01:38:35;;;;;;;7.30;3.20;;;;;;;16.91;61.61;101282.88;105175;1284;22587;-75
2022/08/11 01:44:36;;;;;;;3.10;2.70;;;;;;;16.91;61.66;101284.28;105501;1281;22741;-73
2022/08/11 01:44:39;;;;;;;6.60;3.10;;;;;;;16.93;61.59;101282.66;106072;1277;25247;-74
2022/08/11 01:56:32;;;;;;;6.90;3.40;;;;;;;16.73;62.11;101272.92;106015;1276;23734;-76
2022/08/11 02:03:38;;;;;;;6.40;3.10;;;;;;;16.70;62.56;101275.83;106017;1276;26508;-72
2022/08/11 02:13:56;;;;;;;6.30;3.00;;;;;;;16.65;62.85;101281.45;105792;1276;22629;-72
2022/08/11 02:16:23;;;;;;;4.10;2.90;;;;;;;16.64;62.75;101280.94;105765;1276;24235;-72
2022/08/11 02:26:35;;;;;;;6.40;3.30;;;;;;;16.65;62.93;101282.00;105565;1277;22534;-74
2022/08/11 02:29:25;;;;;;;6.30;3.10;;;;;;;16.65;62.85;101286.27;105899;1276;22896;-75
2022/08/11 02:36:53;;;;;;;6.90;3.20;;;;;;;16.53;62.95;101296.78;106031;1273;25464;-74
2022/08/11 02:55:58;;;;;;;5.00;2.70;;;;;;;16.31;63.83;101293.48;105733;1277;24255;-68
2022/08/11 02:59:48;;;;;;;7.70;3.50;;;;;;;16.30;63.95;101296.88;105968;1277;22565;-73
2022/08/11 03:05:50;;;;;;;;;;;;;;;16.32;64.00;101296.30;106169;1274;22528;-71
2022/08/11 03:08:34;;;;;;;3.80;2.90;;;;;;;16.34;63.87;101294.30;106215;1274;22535;-76
2022/08/11 03:26:36;;;;;;;4.40;3.50;;;;;;;16.28;64.20;101301.54;107493;1271;22513;-73
2022/08/11 03:34:11;;;;;;;6.90;3.30;;;;;;;16.31;64.10;101304.67;109879;1271;22356;-72
2022/08/11 03:36:43;;;;;;;17.00;4.20;;;;;;;16.23;64.13;101305.35;106804;1271;22641;-75
2022/08/11 03:40:03;;;;;;;4.50;3.70;;;;;;;16.24;64.21;101307.48;106358;1271;25478;-71
2022/08/11 03:42:49;;;;;;;7.70;3.50;;;;;;;16.25;64.32;101312.26;106335;1271;25362;-71
2022/08/11 03:54:18;;;;;;;7.40;4.10;;;;;;;16.20;64.43;101315.17;106438;1271;22727;-72
2022/08/11 03:56:53;;;;;;;6.00;4.00;;;;;;;16.20;64.58;101314.30;106509;1271;22519;-73
2022/08/11 04:00:09;;;;;;;9.00;4.10;;;;;;;16.20;64.51;101308.25;106459;1271;23003;-72
2022/08/11 04:02:58;;;;;;;7.40;3.70;;;;;;;16.19;64.36;101312.36;105534;1277;25405;-74
2022/08/11 04:10:00;;;;;;;10.00;3.90;;;;;;;16.14;64.62;101313.14;105488;1276;23221;-73
2022/08/11 04:17:29;;;;;;;6.00;3.80;;;;;;;16.07;64.63;101313.98;105529;1276;22524;-69
2022/08/11 04:24:21;;;;;;;7.00;4.50;;;;;;;16.08;64.76;101316.80;105708;1276;22733;-79
2022/08/11 04:27:25;;;;;;;5.20;4.10;;;;;;;16.11;64.85;101312.33;105565;1277;25317;-74
2022/08/11 04:30:47;;;;;;;11.80;4.70;;;;;;;16.17;64.74;101310.45;105703;1276;22991;-75
2022/08/11 04:33:53;;;;;;;5.70;4.00;;;;;;;16.17;64.70;101312.91;105813;1271;22535;-73
2022/08/11 04:40:50;;;;;;;10.60;3.90;;;;;;;16.25;64.85;101316.70;106036;1271;26622;-76
2022/08/11 04:43:19;;;;;;;;;;;;;;;16.20;64.72;101318.03;106168;1271;22503;-75
2022/08/11 04:46:13;;;;;;;6.00;3.90;;;;;;;16.20;64.82;101317.66;106469;1271;23380;-75
2022/08/11 05:07:44;;;;;;;11.70;4.40;;;;;;;16.37;64.47;101319.15;105745;1276;24264;-73
2022/08/11 05:10:39;;;;;;;12.40;4.00;;;;;;;16.43;64.82;101319.56;105853;1276;25518;-72
2022/08/11 05:36:49;;;;;;;4.50;3.00;;;;;;;16.89;63.86;101319.58;106554;1271;26506;-70
2022/08/11 05:57:01;;;;;;;5.50;3.20;;;;;;;17.28;63.41;101316.45;106418;1271;22691;-68
2022/08/11 05:59:30;;;;;;;7.80;3.00;;;;;;;17.32;63.31;101314.42;106221;1271;24157;-71
2022/08/11 06:02:04;;;;;;;4.50;2.90;;;;;;;17.36;63.15;101312.55;106297;1271;22610;-70
2022/08/11 06:04:32;;;;;;;7.10;2.90;;;;;;;17.43;63.20;101305.08;106041;1271;25846;-70
2022/08/11 06:07:10;;;;;;;8.70;3.60;;;;;;;17.50;63.10;101307.95;106252;1270;23605;-70
2022/08/11 06:09:49;;;;;;;5.10;3.20;;;;;;;17.54;63.02;101313.18;106505;1271;24801;-70
2022/08/11 06:12:20;;;;;;;10.60;3.70;;;;;;;17.59;62.79;101309.69;105851;1276;24255;-70
2022/08/11 06:14:53;;;;;;;6.80;3.10;;;;;;;17.65;62.75;101308.83;105947;1277;23208;-69
2022/08/11 06:17:25;;;;;;;7.00;3.10;;;;;;;17.71;62.66;101312.06;105973;1276;22609;-71
2022/08/11 06:20:11;;;;;;;7.60;3.50;;;;;;;17.78;62.73;101308.70;105746;1281;23834;-69
2022/08/11 06:22:42;;;;;;;5.50;2.90;;;;;;;17.84;62.61;101308.20;105493;1281;24775;-72
2022/08/11 06:25:11;;;;;;;6.30;2.90;;;;;;;17.87;62.58;101309.02;105637;1281;22701;-74
2022/08/11 06:27:41;;;;;;;8.90;2.80;;;;;;;17.95;62.54;101313.27;105778;1281;24214;-72
2022/08/11 06:30:13;;;;;;;4.00;2.60;;;;;;;18.02;62.57;101311.84;106721;1276;22587;-70
2022/08/11 06:32:44;;;;;;;3.60;3.20;;;;;;;18.08;62.51;101311.88;107684;1276;23021;-70
2022/08/11 06:35:28;;;;;;;8.40;3.50;;;;;;;18.14;62.48;101314.08;106220;1276;25325;-69
2022/08/11 06:38:11;;;;;;;8.20;4.10;;;;;;;18.20;62.41;101316.94;107961;1270;22702;-70
2022/08/11 06:43:47;;;;;;;5.40;3.30;;;;;;;18.37;62.31;101320.96;106275;1276;24289;-72
2022/08/11 06:46:30;;;;;;;9.10;4.00;;;;;;;18.45;62.23;101322.18;105955;1276;25638;-73
2022/08/11 06:49:01;;;;;;;;;;;;;;;18.52;62.10;101322.17;105878;1276;24317;-72
2022/08/11 06:51:29;;;;;;;11.00;4.10;;;;;;;18.57;61.98;101317.03;105767;1276;22694;-71
2022/08/11 06:54:00;;;;;;;9.20;3.70;;;;;;;18.64;62.07;101314.17;105687;1276;25334;-70
2022/08/11 07:02:36;;;;;;;11.40;3.30;;;;;;;18.84;61.53;101293.44;106234;1271;23952;-72
2022/08/11 07:05:22;;;;;;;11.20;3.20;;;;;;;18.89;61.32;101285.97;106275;1271;22554;-70
2022/08/11 07:17:10;;;;;;;11.20;3.40;;;;;;;19.19;61.38;101290.10;106033;1271;22542;-69
2022/08/11 07:31:12;;;;;;;;;;;;;;;19.63;60.47;101287.64;106054;1271;23072;-76
2022/08/11 07:33:49;;;;;;;7.00;2.60;;;;;;;19.70;60.41;101288.86;105939;1271;23004;-70
2022/08/11 07:36:39;;;;;;;3.90;2.20;;;;;;;19.80;60.45;101289.23;106133;1271;22578;-73
2022/08/11 07:39:14;;;;;;;3.90;2.60;;;;;;;19.89;60.44;101283.04;106052;1271;22527;-74
2022/08/11 07:41:42;;;;;;;7.30;2.50;;;;;;;19.99;60.18;101284.67;106324;1271;26501;-72
2022/08/11 07:44:10;;;;;;;7.00;2.30;;;;;;;20.08;59.74;101287.63;106386;1271;22541;-70
2022/08/11 07:52:29;;;;;;;10.70;2.80;;;;;;;20.41;59.27;101286.64;106248;1271;22528;-70
2022/08/11 07:55:02;;;;;;;4.80;2.00;;;;;;;20.52;59.24;101283.56;106134;1271;22539;-71
2022/08/11 08:17:48;;;;;;;3.80;1.60;;;;;;;21.62;56.52;101267.86;106157;1271;22657;-68
2022/08/11 08:20:48;;;;;;;6.60;2.00;;;;;;;21.78;56.09;101270.26;106074;1271;22698;-72
2022/08/11 08:23:31;;;;;;;5.30;1.70;;;;;;;21.93;55.89;101265.55;106338;1271;24237;-72
2022/08/11 08:26:03;;;;;;;5.10;2.00;;;;;;;22.08;55.48;101268.67;106461;1271;25232;-71
2022/08/11 08:28:45;;;;;;;3.40;1.70;;;;;;;22.22;55.38;101265.70;106458;1270;22537;-71
2022/08/11 08:31:13;;;;;;;2.30;1.70;;;;;;;22.38;55.12;101270.41;106336;1270;22527;-72
2022/08/11 08:33:40;;;;;;;5.00;2.00;;;;;;;22.53;54.69;101271.02;106131;1271;24228;-70
2022/08/11 08:36:13;;;;;;;3.90;1.70;;;;;;;22.64;53.88;101266.95;105958;1271;24024;-71
2022/08/11 08:38:46;;;;;;;2.00;1.50;;;;;;;22.73;53.25;101264.73;106386;1269;22691;-70
2022/08/11 08:41:18;;;;;;;3.00;1.60;;;;;;;22.86;53.07;101261.80;106262;1271;22525;-72
2022/08/11 08:43:50;;;;;;;3.30;1.60;;;;;;;23.00;52.74;101259.16;106250;1271;22711;-71
2022/08/11 08:46:21;;;;;;;2.90;1.40;;;;;;;23.15;52.63;101257.19;106338;1271;25951;-71
2022/08/11 08:48:49;;;;;;;4.70;1.60;;;;;;;23.28;52.22;101253.89;106390;1270;22726;-72
2022/08/11 08:51:33;;;;;;;4.50;1.60;;;;;;;23.40;51.92;101253.85;106133;1271;22764;-71
2022/08/11 08:54:27;;;;;;;3.60;1.60;;;;;;;23.56;51.84;101257.40;106125;1271;22694;-71
2022/08/11 08:56:56;;;;;;;2.00;1.10;;;;;;;23.74;51.64;101262.80;106248;1271;24373;-71
2022/08/11 08:59:25;;;;;;;4.60;1.40;;;;;;;23.89;50.67;101257.02;106228;1271;22544;-70
2022/08/11 09:02:13;;;;;;;5.90;1.70;;;;;;;24.07;50.37;101261.27;106313;1271;22544;-70
2022/08/11 09:04:44;;;;;;;3.40;1.60;;;;;;;24.21;49.90;101253.90;106097;1271;22551;-85
2022/08/11 09:07:21;;;;;;;4.90;1.30;;;;;;;24.37;49.66;101253.83;106468;1271;24834;-77
2022/08/11 09:09:51;;;;;;;3.20;1.40;;;;;;;24.53;49.43;101249.91;106272;1271;24220;-71
2022/08/11 09:12:19;;;;;;;6.40;1.60;;;;;;;24.70;48.86;101247.92;106257;1271;22562;-70
2022/08/11 09:15:08;;;;;;;5.10;1.60;;;;;;;24.83;48.10;101240.69;106322;1271;24556;-70
2022/08/11 09:17:50;;;;;;;3.90;1.30;;;;;;;24.97;47.99;101243.21;106219;1271;25359;-73
2022/08/11 09:20:24;;;;;;;3.10;1.40;;;;;;;25.12;47.61;101244.52;106373;1271;22588;-71
2022/08/11 09:28:58;;;;;;;2.20;1.30;;;;;;;25.72;46.30;101236.58;106470;1271;24364;-71
2022/08/11 09:31:30;;;;;;;1.90;1.20;;;;;;;25.91;45.91;101240.15;106377;1271;25956;-71
2022/08/11 09:34:09;;;;;;;2.00;1.00;;;;;;;26.13;45.79;101240.41;106200;1271;24659;-71
2022/08/11 09:42:15;;;;;;;2.20;1.20;;;;;;;26.38;43.27;101235.52;108168;1271;23870;-71
2022/08/11 09:44:51;;;;;;;1.30;1.00;;;;;;;26.37;42.78;101234.29;108072;1270;25214;-71
2022/08/11 09:47:30;;;;;;;0.90;0.70;;;;;;;26.26;42.49;101235.48;107786;1271;22583;-71
2022/08/11 09:50:00;;;;;;;1.90;0.70;;;;;;;26.30;42.28;101230.77;109524;1270;22471;-71
2022/08/11 09:52:31;;;;;;;2.30;0.80;;;;;;;26.29;41.93;101232.08;108765;1271;22703;-70
2022/08/11 09:55:00;;;;;;;1.40;0.90;;;;;;;26.34;41.84;101230.00;107392;1271;25417;-69
2022/08/11 10:00:13;;;;;;;1.10;0.90;;;;;;;26.70;41.54;101226.99;105903;1277;22723;-70
2022/08/11 10:02:47;;;;;;;1.90;0.90;;;;;;;26.74;41.07;101225.86;105939;1277;24435;-71
2022/08/11 10:08:06;;;;;;;1.10;0.90;;;;;;;26.73;40.69;101219.55;105282;1279;22617;-70
2022/08/11 10:10:36;;;;;;;0.80;0.80;;;;;;;26.90;40.55;101218.86;105445;1281;22604;-70
2022/08/11 10:13:09;;;;;;;2.30;1.00;;;;;;;27.10;40.48;101209.47;105652;1280;22483;-71
2022/08/11 10:15:59;;;;;;;1.40;1.00;;;;;;;27.34;40.23;101193.77;105701;1279;25364;-72
2022/08/11 10:18:51;;;;;;;1.50;0.90;;;;;;;27.38;39.80;101198.58;105513;1276;22628;-70
2022/08/11 10:21:42;;;;;;;2.80;1.10;;;;;;;27.49;39.75;101203.24;105794;1276;25332;-70
2022/08/11 10:27:02;;;;;;;3.10;1.00;;;;;;;27.92;38.29;101198.19;106247;1271;24303;-73
2022/08/11 10:35:30;;;;;;;3.90;0.70;;;;;;;28.50;36.97;101175.25;106227;1271;22682;-68
2022/08/11 10:37:59;;;;;;;1.70;0.80;;;;;;;28.70;36.63;101172.57;106336;1271;22485;-68
2022/08/11 10:40:38;;;;;;;1.90;0.80;;;;;;;28.88;36.16;101170.19;106416;1271;22550;-71
2022/08/11 10:43:12;;;;;;;2.60;1.00;;;;;;;28.96;35.78;101166.73;106102;1274;22541;-69
2022/08/11 10:48:36;;;;;;;3.70;1.20;;;;;;;29.14;35.35;101160.33;106353;1271;24405;-72
2022/08/11 10:51:13;;;;;;;1.50;0.90;;;;;;;28.96;35.69;101156.88;106362;1271;24346;-71
2022/08/11 10:59:28;;;;;;;0.90;0.90;;;;;;;29.09;35.69;101169.17;106109;1271;22548;-72
2022/08/11 11:01:57;;;;;;;1.60;1.00;;;;;;;28.97;35.62;101162.63;106241;1270;25476;-71
2022/08/11 11:04:52;;;;;;;3.70;1.20;;;;;;;28.69;35.55;101156.86;106528;1271;22528;-68
2022/08/11 11:07:28;;;;;;;4.30;1.10;;;;;;;28.30;35.26;101152.08;106336;1271;23911;-70
2022/08/11 11:10:00;;;;;;;2.60;1.00;;;;;;;27.99;35.45;101146.29;106384;1271;24258;-71
2022/08/11 11:18:34;;;;;;;0.90;0.90;;;;;;;27.17;36.88;101142.27;105681;1277;25721;-68
2022/08/11 11:21:13;;;;;;;1.90;1.30;;;;;;;27.04;37.31;101138.66;106166;1271;22848;-68
2022/08/11 11:24:00;;;;;;;2.70;1.00;;;;;;;27.08;37.66;101139.43;106303;1271;24311;-72
2022/08/11 11:26:55;;;;;;;1.90;1.00;;;;;;;27.10;37.47;101135.89;106374;1271;25223;-73
2022/08/11 11:29:40;;;;;;;1.60;1.00;;;;;;;26.99;37.60;101137.89;106348;1271;22991;-75
2022/08/11 11:32:26;;;;;;;4.20;0.90;;;;;;;26.87;38.10;101132.67;106431;1271;24416;-72
2022/08/11 11:35:14;;;;;;;2.50;1.30;;;;;;;26.78;38.23;101133.31;106447;1271;22576;-73
2022/08/11 11:37:45;;;;;;;2.70;1.10;;;;;;;26.60;38.32;101133.55;106420;1271;22549;-72
2022/08/11 11:40:31;;;;;;;3.40;0.90;;;;;;;26.44;38.68;101132.78;106228;1271;25373;-70
2022/08/11 11:42:59;;;;;;;2.20;1.00;;;;;;;26.34;38.78;101125.95;106193;1271;25452;-70
2022/08/11 11:45:27;;;;;;;1.70;0.90;;;;;;;26.23;38.81;101121.23;106454;1271;23974;-70
2022/08/11 11:47:57;;;;;;;1.60;1.20;;;;;;;26.31;38.95;101122.73;106621;1271;25242;-71
2022/08/11 11:50:33;;;;;;;2.10;1.30;;;;;;;26.75;38.79;101111.80;106368;1271;25369;-73
2022/08/11 11:53:06;;;;;;;2.70;1.50;;;;;;;27.29;37.99;101106.02;106406;1271;23078;-71
2022/08/11 11:55:34;;;;;;;2.50;0.80;;;;;;;27.75;37.04;101105.98;106225;1271;22538;-70
2022/08/11 12:03:39;;;;;;;0.80;0.70;;;;;;;29.17;34.98;101090.45;106338;1271;23182;-72
2022/08/11 12:06:10;;;;;;;0.90;0.80;;;;;;;29.50;34.43;101085.17;106432;1271;22634;-70
2022/08/11 12:08:37;;;;;;;1.80;0.70;;;;;;;29.69;33.85;101089.54;106183;1273;24377;-70
2022/08/11 12:14:01;;;;;;;4.80;0.80;;;;;;;30.26;33.21;101086.26;106400;1271;22563;-72
2022/08/11 12:16:32;;;;;;;1.00;0.80;;;;;;;30.14;33.06;101079.26;106230;1271;25514;-71
2022/08/11 12:19:06;;;;;;;1.00;0.90;;;;;;;29.81;32.46;101076.77;106290;1269;26535;-71
2022/08/11 12:21:35;;;;;;;2.10;0.90;;;;;;;29.60;32.47;101081.36;106298;1271;24257;-70
2022/08/11 12:29:50;;;;;;;3.60;1.10;;;;;;;28.81;33.02;101076.27;106243;1271;24382;-70
2022/08/11 12:32:34;;;;;;;5.20;1.30;;;;;;;28.41;33.30;101072.70;106326;1271;22563;-71
2022/08/11 12:35:01;;;;;;;1.70;0.80;;;;;;;28.13;33.35;101073.61;106538;1271;22849;-71
2022/08/11 12:37:39;;;;;;;3.00;0.90;;;;;;;27.91;33.47;101068.29;106328;1271;22575;-71
2022/08/11 12:46:26;;;;;;;3.30;0.80;;;;;;;28.74;33.31;101060.50;106469;1271;23269;-71
2022/08/11 12:52:00;;;;;;;1.20;0.70;;;;;;;28.80;33.65;101063.84;106809;1271;23858;-71
2022/08/11 12:54:50;;;;;;;1.60;0.80;;;;;;;28.57;33.54;101062.82;106540;1271;1937911;-71
2022/08/11 13:06:05;;;;;;;1.80;1.10;;;;;;;28.66;32.82;101055.67;106683;1271;24280;-71
2022/08/11 13:08:35;;;;;;;2.20;1.00;;;;;;;29.11;32.58;101052.12;106558;1271;26507;-72
2022/08/11 13:14:20;;;;;;;1.80;0.60;;;;;;;30.03;31.66;101042.31;106169;1270;22475;-72
2022/08/11 13:19:34;;;;;;;2.20;0.90;;;;;;;30.01;30.93;101051.25;106539;1271;22601;-71
2022/08/11 13:22:06;;;;;;;3.60;0.90;;;;;;;29.79;30.87;101054.92;106411;1271;23049;-71
2022/08/11 13:24:34;;;;;;;0.80;0.70;;;;;;;29.59;30.80;101061.05;106389;1271;22544;-73
2022/08/11 13:27:02;;;;;;;4.00;0.90;;;;;;;29.36;31.13;101058.52;106328;1271;22602;-71
2022/08/11 13:29:29;;;;;;;2.80;1.30;;;;;;;29.16;31.34;101063.66;106170;1271;25194;-71
2022/08/11 13:31:58;;;;;;;4.20;1.30;;;;;;;29.04;31.48;101056.46;106278;1271;24351;-71
2022/08/11 13:34:29;;;;;;;2.60;1.00;;;;;;;28.91;31.60;101051.80;106476;1271;24334;-72
2022/08/11 13:37:00;;;;;;;2.70;1.20;;;;;;;28.91;31.65;101047.37;106144;1274;25341;-71
2022/08/11 13:39:29;;;;;;;3.50;0.90;;;;;;;29.04;31.87;101048.77;106069;1275;23914;-72
2022/08/11 13:41:59;;;;;;;1.70;0.80;;;;;;;29.38;31.91;101051.12;106067;1274;24239;-72
2022/08/11 13:44:30;;;;;;;1.90;0.80;;;;;;;29.72;31.59;101045.55;105996;1275;22537;-72
2022/08/11 13:47:00;;;;;;;1.60;0.90;;;;;;;30.01;31.36;101044.69;106078;1274;22848;-71
2022/08/11 13:49:34;;;;;;;0.70;0.70;;;;;;;30.26;30.73;101042.85;106186;1274;22632;-71
2022/08/11 13:52:03;;;;;;;1.30;0.70;;;;;;;30.28;30.36;101042.37;106136;1274;22554;-72
2022/08/11 13:54:33;;;;;;;1.50;1.00;;;;;;;30.40;30.11;101033.16;106062;1271;24265;-70
2022/08/11 13:57:06;;;;;;;1.50;0.90;;;;;;;30.77;29.58;101033.52;106315;1271;25236;-69
2022/08/11 13:59:40;;;;;;;3.00;0.90;;;;;;;31.21;29.34;101034.08;106218;1271;22530;-69
2022/08/11 14:02:30;;;;;;;1.50;0.60;;;;;;;31.71;28.69;101036.82;106259;1271;25366;-71
2022/08/11 14:05:04;;;;;;;1.40;0.80;;;;;;;31.97;28.09;101032.88;106383;1271;22530;-74
2022/08/11 14:07:38;;;;;;;3.60;1.00;;;;;;;31.78;27.70;101037.13;106285;1271;23392;-70
2022/08/11 14:10:09;;;;;;;1.90;0.80;;;;;;;31.55;27.97;101037.30;106304;1271;23127;-72
2022/08/11 14:15:33;;;;;;;1.00;0.90;;;;;;;31.42;27.96;101038.64;106271;1271;22466;-72
2022/08/11 14:18:03;;;;;;;;;;;;;;;31.12;28.22;101038.04;106283;1271;24221;-73
2022/08/11 14:23:35;;;;;;;3.50;1.00;;;;;;;30.55;28.56;101043.06;106330;1271;25369;-70
2022/08/11 14:26:22;;;;;;;2.20;0.80;;;;;;;30.26;28.85;101053.05;106548;1271;24221;-72
2022/08/11 14:28:54;;;;;;;1.90;0.80;;;;;;;29.96;29.37;101055.08;106334;1271;23929;-71
2022/08/11 14:31:27;;;;;;;1.00;0.90;;;;;;;29.66;30.02;101058.16;106271;1271;25360;-72
2022/08/11 14:33:56;;;;;;;3.90;1.10;;;;;;;29.34;30.57;101059.02;106299;1271;23081;-70
2022/08/11 14:36:34;;;;;;;2.30;1.20;;;;;;;29.07;31.24;101056.17;106294;1271;25443;-72
2022/08/11 14:39:07;;;;;;;4.90;1.10;;;;;;;28.81;31.55;101053.39;106183;1271;25303;-72
2022/08/11 14:47:32;;;;;;;2.80;0.80;;;;;;;28.34;32.08;101055.98;106446;1271;22633;-73
2022/08/11 14:50:01;;;;;;;2.20;1.10;;;;;;;28.56;31.96;101055.61;106382;1271;22781;-72
2022/08/11 14:52:49;;;;;;;2.40;1.20;;;;;;;28.72;31.96;101051.96;106446;1271;22486;-72
2022/08/11 14:58:08;;;;;;;1.90;0.70;;;;;;;28.50;32.41;101045.96;106449;1271;25238;-74
2022/08/11 15:00:37;;;;;;;6.30;0.90;;;;;;;28.30;32.83;101042.88;106551;1271;22673;-74
2022/08/11 15:03:09;;;;;;;1.40;0.70;;;;;;;28.13;32.67;101048.44;106345;1271;23946;-75
2022/08/11 15:05:51;;;;;;;3.20;1.00;;;;;;;27.88;33.23;101046.95;106402;1271;25364;-76
2022/08/11 15:14:03;;;;;;;1.80;1.00;;;;;;;27.21;33.98;101040.23;106298;1271;23954;-75
2022/08/11 15:19:19;;;;;;;1.40;0.90;;;;;;;26.79;35.24;101045.02;106255;1271;22554;-75
2022/08/11 15:24:35;;;;;;;2.90;0.90;;;;;;;26.30;36.02;101049.11;106544;1271;25153;-75
2022/08/11 15:38:41;;;;;;;1.30;1.00;;;;;;;26.77;37.31;101039.89;106091;1274;22633;-74
2022/08/11 15:47:07;;;;;;;4.10;1.30;;;;;;;27.01;37.18;101025.86;106099;1274;22672;-73
2022/08/11 15:49:38;;;;;;;4.00;1.00;;;;;;;26.93;37.21;101020.96;106015;1274;25209;-72
2022/08/11 15:52:42;;;;;;;0.90;0.70;;;;;;;26.95;37.51;101026.45;106386;1271;25236;-69
2022/08/11 15:55:10;;;;;;;4.40;1.20;;;;;;;26.87;37.71;101027.71;106444;1271;24354;-72
2022/08/11 16:06:20;;;;;;;1.40;0.90;;;;;;;26.67;38.42;101037.32;108427;1271;22579;-69
2022/08/11 16:08:51;;;;;;;1.10;1.00;;;;;;;26.57;38.68;101037.49;107386;1271;25351;-71
2022/08/11 16:11:21;;;;;;;2.30;0.90;;;;;;;26.58;38.90;101032.71;107899;1271;24260;-72
2022/08/11 16:16:38;;;;;;;2.40;1.20;;;;;;;26.62;39.18;101025.77;108628;1271;22721;-72
2022/08/11 16:19:09;;;;;;;1.90;0.90;;;;;;;26.68;39.28;101031.70;106895;1271;22539;-72
2022/08/11 16:21:39;;;;;;;4.00;1.20;;;;;;;26.75;39.38;101031.78;106448;1271;22553;-72
2022/08/11 16:24:10;;;;;;;4.70;1.40;;;;;;;26.61;39.32;101030.54;106297;1274;25232;-72
2022/08/11 16:27:00;;;;;;;4.50;1.10;;;;;;;26.59;39.60;101031.17;106421;1269;25344;-72
2022/08/11 16:29:43;;;;;;;2.40;1.00;;;;;;;26.46;39.52;101031.15;106277;1271;26669;-72
2022/08/11 16:32:15;;;;;;;4.00;1.00;;;;;;;26.26;40.04;101023.58;106351;1271;24231;-72
2022/08/11 16:40:28;;;;;;;5.80;1.30;;;;;;;25.68;41.13;101037.52;106183;1272;22758;-71
2022/08/11 16:48:33;;;;;;;3.50;0.70;;;;;;;25.32;42.07;101037.16;106448;1271;25611;-70
2022/08/11 16:51:05;;;;;;;4.20;1.00;;;;;;;25.23;41.98;101033.55;106326;1271;22544;-71
2022/08/11 16:53:33;;;;;;;2.60;1.10;;;;;;;25.11;42.28;101031.21;106564;1272;22840;-71
2022/08/11 16:56:31;;;;;;;1.30;0.90;;;;;;;25.01;42.59;101036.51;106218;1271;24299;-70
2022/08/11 16:59:13;;;;;;;1.60;0.90;;;;;;;24.96;42.54;101039.88;106436;1274;25509;-70
2022/08/11 17:02:05;;;;;;;1.50;0.90;;;;;;;24.72;42.69;101031.89;106316;1271;25522;-71
2022/08/11 17:13:35;;;;;;;3.30;0.80;;;;;;;24.12;44.02;101033.06;106256;1271;24222;-71
2022/08/11 17:16:06;;;;;;;1.40;0.90;;;;;;;23.93;44.71;101030.01;106343;1271;25161;-71
2022/08/11 17:18:50;;;;;;;1.30;0.90;;;;;;;23.68;44.89;101033.11;106052;1271;25506;-70
2022/08/11 17:21:35;;;;;;;1.00;0.80;;;;;;;23.54;45.34;101033.88;106173;1271;22540;-68
2022/08/11 17:24:05;;;;;;;;;;;;;;;23.39;45.72;101035.73;106425;1271;22524;-69
2022/08/11 17:26:54;;;;;;;1.90;1.20;;;;;;;23.26;46.35;101037.13;106414;1271;24818;-70
2022/08/11 17:29:38;;;;;;;2.50;1.10;;;;;;;23.14;46.48;101038.27;106316;1272;25470;-72
2022/08/11 17:35:29;;;;;;;2.70;1.40;;;;;;;22.89;47.51;101037.38;106111;1271;23104;-72
2022/08/11 17:38:11;;;;;;;4.80;1.20;;;;;;;22.82;47.83;101036.44;105948;1274;25302;-73
2022/08/11 17:49:38;;;;;;;2.50;1.40;;;;;;;22.60;48.85;101040.59;106454;1271;22560;-71
2022/08/11 18:01:08;;;;;;;1.80;1.30;;;;;;;22.24;50.44;101043.56;106284;1271;22527;-70
2022/08/11 18:03:40;;;;;;;4.00;1.60;;;;;;;22.17;50.28;101042.81;106035;1271;26488;-72
2022/08/11 18:06:21;;;;;;;4.60;1.30;;;;;;;22.11;50.53;101045.44;105965;1272;22529;-71
